sensor_id;sensor_type;location;lat;lon;timestamp;temperature;humidity
6536;DHT22;34330;52.08032700;5.40923460;2023-05-17T00:01:47;13.00;75.40
6536;DHT22;34330;52.08032700;5.40923460;2023-05-17T00:04:15;13.00;75.20
6536;DHT22;34330;52.08032700;5.40923460;2023-05-17T00:06:43;13.00;75.40
6536;DHT22;34330;52.08032700;5.40923460;2023-05-17T00:09:11;12.90;75.50
6536;DHT22;34330;52.08032700;5.40923460;2023-05-17T00:11:39;12.90;75.40
6536;DHT22;34330;52.08032700;5.40923460;2023-05-17T00:14:07;12.90;75.60
6536;DHT22;34330;52.08032700;5.40923460;2023-05-17T00:16:36;12.90;75.70
6536;DHT22;34330;52.08032700;5.40923460;2023-05-17T00:19:05;12.90;75.70
6536;DHT22;34330;52.08032700;5.40923460;2023-05-17T00:21:35;12.80;75.80
6536;DHT22;34330;52.08032700;5.40923460;2023-05-17T00:24:04;12.80;75.80
6536;DHT22;34330;52.08032700;5.40923460;2023-05-17T00:26:32;12.80;75.90
6536;DHT22;34330;52.08032700;5.40923460;2023-05-17T00:29:00;12.80;75.90
6536;DHT22;34330;52.08032700;5.40923460;2023-05-17T00:31:28;12.80;76.00
6536;DHT22;34330;52.08032700;5.40923460;2023-05-17T00:33:56;12.80;76.80
6536;DHT22;34330;52.08032700;5.40923460;2023-05-17T00:36:25;12.70;76.30
6536;DHT22;34330;52.08032700;5.40923460;2023-05-17T00:38:53;12.80;76.80
6536;DHT22;34330;52.08032700;5.40923460;2023-05-17T00:41:21;12.70;76.80
6536;DHT22;34330;52.08032700;5.40923460;2023-05-17T00:43:49;12.70;77.60
6536;DHT22;34330;52.08032700;5.40923460;2023-05-17T00:46:17;12.70;76.70
6536;DHT22;34330;52.08032700;5.40923460;2023-05-17T00:48:45;12.70;76.80
6536;DHT22;34330;52.08032700;5.40923460;2023-05-17T00:51:15;12.70;76.80
6536;DHT22;34330;52.08032700;5.40923460;2023-05-17T00:53:47;12.70;76.90
6536;DHT22;34330;52.08032700;5.40923460;2023-05-17T00:56:16;12.70;77.00
6536;DHT22;34330;52.08032700;5.40923460;2023-05-17T00:58:44;12.60;76.90
6536;DHT22;34330;52.08032700;5.40923460;2023-05-17T01:01:12;12.60;76.90
6536;DHT22;34330;52.08032700;5.40923460;2023-05-17T01:03:40;12.60;77.00
6536;DHT22;34330;52.08032700;5.40923460;2023-05-17T01:06:08;12.60;76.90
6536;DHT22;34330;52.08032700;5.40923460;2023-05-17T01:08:37;12.50;77.30
6536;DHT22;34330;52.08032700;5.40923460;2023-05-17T01:11:15;12.50;77.50
6536;DHT22;34330;52.08032700;5.40923460;2023-05-17T01:13:53;12.50;78.10
6536;DHT22;34330;52.08032700;5.40923460;2023-05-17T01:16:26;12.50;78.30
6536;DHT22;34330;52.08032700;5.40923460;2023-05-17T01:19:01;12.50;78.30
6536;DHT22;34330;52.08032700;5.40923460;2023-05-17T01:21:44;12.50;78.60
6536;DHT22;34330;52.08032700;5.40923460;2023-05-17T01:24:24;12.50;79.00
6536;DHT22;34330;52.08032700;5.40923460;2023-05-17T01:26:54;12.50;78.90
6536;DHT22;34330;52.08032700;5.40923460;2023-05-17T01:29:25;12.50;78.90
6536;DHT22;34330;52.08032700;5.40923460;2023-05-17T01:31:54;12.50;79.00
6536;DHT22;34330;52.08032700;5.40923460;2023-05-17T01:34:26;12.50;79.30
6536;DHT22;34330;52.08032700;5.40923460;2023-05-17T01:36:54;12.50;79.80
6536;DHT22;34330;52.08032700;5.40923460;2023-05-17T01:39:23;12.50;79.80
6536;DHT22;34330;52.08032700;5.40923460;2023-05-17T01:41:58;12.50;80.20
6536;DHT22;34330;52.08032700;5.40923460;2023-05-17T01:44:33;12.50;80.50
6536;DHT22;34330;52.08032700;5.40923460;2023-05-17T01:47:11;12.50;80.70
6536;DHT22;34330;52.08032700;5.40923460;2023-05-17T01:49:41;12.50;80.80
6536;DHT22;34330;52.08032700;5.40923460;2023-05-17T01:52:18;12.60;80.90
6536;DHT22;34330;52.08032700;5.40923460;2023-05-17T01:54:52;12.60;81.20
6536;DHT22;34330;52.08032700;5.40923460;2023-05-17T01:57:28;12.60;81.20
6536;DHT22;34330;52.08032700;5.40923460;2023-05-17T01:59:59;12.60;81.40
6536;DHT22;34330;52.08032700;5.40923460;2023-05-17T02:02:29;12.70;81.40
6536;DHT22;34330;52.08032700;5.40923460;2023-05-17T02:04:57;12.70;81.30
6536;DHT22;34330;52.08032700;5.40923460;2023-05-17T02:07:25;12.70;81.30
6536;DHT22;34330;52.08032700;5.40923460;2023-05-17T02:09:53;12.70;81.40
6536;DHT22;34330;52.08032700;5.40923460;2023-05-17T02:12:22;12.70;81.40
6536;DHT22;34330;52.08032700;5.40923460;2023-05-17T02:14:50;12.80;81.60
6536;DHT22;34330;52.08032700;5.40923460;2023-05-17T02:17:18;12.80;81.60
6536;DHT22;34330;52.08032700;5.40923460;2023-05-17T02:19:46;12.80;81.70
6536;DHT22;34330;52.08032700;5.40923460;2023-05-17T02:22:14;12.80;81.60
6536;DHT22;34330;52.08032700;5.40923460;2023-05-17T02:24:42;12.90;81.60
6536;DHT22;34330;52.08032700;5.40923460;2023-05-17T02:27:10;12.90;81.80
6536;DHT22;34330;52.08032700;5.40923460;2023-05-17T02:29:40;12.90;81.70
6536;DHT22;34330;52.08032700;5.40923460;2023-05-17T02:32:08;12.90;82.00
6536;DHT22;34330;52.08032700;5.40923460;2023-05-17T02:34:36;12.90;81.90
6536;DHT22;34330;52.08032700;5.40923460;2023-05-17T02:37:04;12.90;81.90
6536;DHT22;34330;52.08032700;5.40923460;2023-05-17T02:39:32;13.10;82.20
6536;DHT22;34330;52.08032700;5.40923460;2023-05-17T02:42:00;12.90;82.20
6536;DHT22;34330;52.08032700;5.40923460;2023-05-17T02:44:28;13.00;82.10
6536;DHT22;34330;52.08032700;5.40923460;2023-05-17T02:46:57;12.90;81.90
6536;DHT22;34330;52.08032700;5.40923460;2023-05-17T02:49:25;12.90;82.10
6536;DHT22;34330;52.08032700;5.40923460;2023-05-17T02:51:53;12.90;82.20
6536;DHT22;34330;52.08032700;5.40923460;2023-05-17T02:54:21;12.90;82.20
6536;DHT22;34330;52.08032700;5.40923460;2023-05-17T02:56:49;13.00;82.40
6536;DHT22;34330;52.08032700;5.40923460;2023-05-17T02:59:17;12.90;82.30
6536;DHT22;34330;52.08032700;5.40923460;2023-05-17T03:01:45;13.00;82.50
6536;DHT22;34330;52.08032700;5.40923460;2023-05-17T03:04:15;12.90;82.40
6536;DHT22;34330;52.08032700;5.40923460;2023-05-17T03:06:45;12.90;82.60
6536;DHT22;34330;52.08032700;5.40923460;2023-05-17T03:09:14;12.90;82.50
6536;DHT22;34330;52.08032700;5.40923460;2023-05-17T03:11:42;12.90;82.50
6536;DHT22;34330;52.08032700;5.40923460;2023-05-17T03:14:09;12.90;82.70
6536;DHT22;34330;52.08032700;5.40923460;2023-05-17T03:16:37;12.90;82.80
6536;DHT22;34330;52.08032700;5.40923460;2023-05-17T03:19:05;12.90;83.00
6536;DHT22;34330;52.08032700;5.40923460;2023-05-17T03:21:35;12.90;83.20
6536;DHT22;34330;52.08032700;5.40923460;2023-05-17T03:24:03;12.90;83.50
6536;DHT22;34330;52.08032700;5.40923460;2023-05-17T03:26:31;13.00;83.40
6536;DHT22;34330;52.08032700;5.40923460;2023-05-17T03:28:59;12.90;83.50
6536;DHT22;34330;52.08032700;5.40923460;2023-05-17T03:31:27;12.90;83.40
6536;DHT22;34330;52.08032700;5.40923460;2023-05-17T03:33:55;13.00;83.40
6536;DHT22;34330;52.08032700;5.40923460;2023-05-17T03:36:23;13.00;83.30
6536;DHT22;34330;52.08032700;5.40923460;2023-05-17T03:38:52;13.00;83.60
6536;DHT22;34330;52.08032700;5.40923460;2023-05-17T03:41:20;13.00;83.00
6536;DHT22;34330;52.08032700;5.40923460;2023-05-17T03:43:48;13.00;82.90
6536;DHT22;34330;52.08032700;5.40923460;2023-05-17T03:46:16;13.20;82.60
6536;DHT22;34330;52.08032700;5.40923460;2023-05-17T03:48:44;13.00;82.70
6536;DHT22;34330;52.08032700;5.40923460;2023-05-17T03:51:12;13.00;82.80
6536;DHT22;34330;52.08032700;5.40923460;2023-05-17T03:53:40;13.00;82.40
6536;DHT22;34330;52.08032700;5.40923460;2023-05-17T03:56:10;12.90;82.50
6536;DHT22;34330;52.08032700;5.40923460;2023-05-17T03:58:38;12.90;82.50
6536;DHT22;34330;52.08032700;5.40923460;2023-05-17T04:01:06;12.90;82.20
6536;DHT22;34330;52.08032700;5.40923460;2023-05-17T04:03:34;13.10;82.40
6536;DHT22;34330;52.08032700;5.40923460;2023-05-17T04:06:03;12.90;82.10
6536;DHT22;34330;52.08032700;5.40923460;2023-05-17T04:08:33;12.80;82.10
6536;DHT22;34330;52.08032700;5.40923460;2023-05-17T04:11:01;12.80;81.80
6536;DHT22;34330;52.08032700;5.40923460;2023-05-17T04:13:38;12.80;81.90
6536;DHT22;34330;52.08032700;5.40923460;2023-05-17T04:16:06;12.80;82.10
6536;DHT22;34330;52.08032700;5.40923460;2023-05-17T04:18:35;12.80;82.00
6536;DHT22;34330;52.08032700;5.40923460;2023-05-17T04:21:04;12.70;82.00
6536;DHT22;34330;52.08032700;5.40923460;2023-05-17T04:23:33;12.70;81.90
6536;DHT22;34330;52.08032700;5.40923460;2023-05-17T04:26:01;12.70;82.00
6536;DHT22;34330;52.08032700;5.40923460;2023-05-17T04:28:30;12.70;81.90
6536;DHT22;34330;52.08032700;5.40923460;2023-05-17T04:31:01;12.70;81.90
6536;DHT22;34330;52.08032700;5.40923460;2023-05-17T04:33:33;12.60;82.10
6536;DHT22;34330;52.08032700;5.40923460;2023-05-17T04:36:02;12.60;82.00
6536;DHT22;34330;52.08032700;5.40923460;2023-05-17T04:38:30;12.60;81.90
6536;DHT22;34330;52.08032700;5.40923460;2023-05-17T04:41:01;12.70;82.00
6536;DHT22;34330;52.08032700;5.40923460;2023-05-17T04:43:30;12.60;82.20
6536;DHT22;34330;52.08032700;5.40923460;2023-05-17T04:45:59;12.60;82.10
6536;DHT22;34330;52.08032700;5.40923460;2023-05-17T04:48:30;12.60;82.20
6536;DHT22;34330;52.08032700;5.40923460;2023-05-17T04:51:00;12.60;82.50
6536;DHT22;34330;52.08032700;5.40923460;2023-05-17T04:53:30;12.60;82.30
6536;DHT22;34330;52.08032700;5.40923460;2023-05-17T04:55:58;12.60;82.30
6536;DHT22;34330;52.08032700;5.40923460;2023-05-17T04:58:26;12.60;82.40
6536;DHT22;34330;52.08032700;5.40923460;2023-05-17T05:00:53;12.60;82.40
6536;DHT22;34330;52.08032700;5.40923460;2023-05-17T05:03:22;12.60;82.20
6536;DHT22;34330;52.08032700;5.40923460;2023-05-17T05:05:51;12.60;82.50
6536;DHT22;34330;52.08032700;5.40923460;2023-05-17T05:08:19;12.60;82.50
6536;DHT22;34330;52.08032700;5.40923460;2023-05-17T05:10:47;12.60;82.40
6536;DHT22;34330;52.08032700;5.40923460;2023-05-17T05:13:16;12.60;82.10
6536;DHT22;34330;52.08032700;5.40923460;2023-05-17T05:15:44;12.70;82.30
6536;DHT22;34330;52.08032700;5.40923460;2023-05-17T05:18:12;12.70;82.00
6536;DHT22;34330;52.08032700;5.40923460;2023-05-17T05:20:42;13.60;82.90
6536;DHT22;34330;52.08032700;5.40923460;2023-05-17T05:23:12;12.70;82.00
6536;DHT22;34330;52.08032700;5.40923460;2023-05-17T05:25:41;12.70;81.90
6536;DHT22;34330;52.08032700;5.40923460;2023-05-17T05:28:10;12.80;82.00
6536;DHT22;34330;52.08032700;5.40923460;2023-05-17T05:30:38;12.80;81.60
6536;DHT22;34330;52.08032700;5.40923460;2023-05-17T05:33:06;12.80;81.70
6536;DHT22;34330;52.08032700;5.40923460;2023-05-17T05:35:34;12.90;81.70
6536;DHT22;34330;52.08032700;5.40923460;2023-05-17T05:38:02;12.90;81.60
6536;DHT22;34330;52.08032700;5.40923460;2023-05-17T05:40:32;13.00;81.60
6536;DHT22;34330;52.08032700;5.40923460;2023-05-17T05:43:00;13.00;81.50
6536;DHT22;34330;52.08032700;5.40923460;2023-05-17T05:45:28;13.10;81.40
6536;DHT22;34330;52.08032700;5.40923460;2023-05-17T05:47:55;13.20;81.40
6536;DHT22;34330;52.08032700;5.40923460;2023-05-17T05:50:24;13.20;81.10
6536;DHT22;34330;52.08032700;5.40923460;2023-05-17T05:52:51;13.30;81.00
6536;DHT22;34330;52.08032700;5.40923460;2023-05-17T05:55:33;13.30;80.70
6536;DHT22;34330;52.08032700;5.40923460;2023-05-17T05:58:01;13.40;80.50
6536;DHT22;34330;52.08032700;5.40923460;2023-05-17T06:00:29;13.50;80.30
6536;DHT22;34330;52.08032700;5.40923460;2023-05-17T06:02:57;13.50;80.10
6536;DHT22;34330;52.08032700;5.40923460;2023-05-17T06:05:27;13.60;80.00
6536;DHT22;34330;52.08032700;5.40923460;2023-05-17T06:07:55;13.70;79.70
6536;DHT22;34330;52.08032700;5.40923460;2023-05-17T06:10:23;13.70;79.50
6536;DHT22;34330;52.08032700;5.40923460;2023-05-17T06:12:52;13.80;79.10
6536;DHT22;34330;52.08032700;5.40923460;2023-05-17T06:15:20;13.80;78.90
6536;DHT22;34330;52.08032700;5.40923460;2023-05-17T06:17:49;13.90;78.90
6536;DHT22;34330;52.08032700;5.40923460;2023-05-17T06:20:18;14.00;78.70
6536;DHT22;34330;52.08032700;5.40923460;2023-05-17T06:22:46;14.10;78.80
6536;DHT22;34330;52.08032700;5.40923460;2023-05-17T06:25:14;14.10;78.60
6536;DHT22;34330;52.08032700;5.40923460;2023-05-17T06:27:42;14.20;78.40
6536;DHT22;34330;52.08032700;5.40923460;2023-05-17T06:30:12;14.20;77.80
6536;DHT22;34330;52.08032700;5.40923460;2023-05-17T06:32:41;14.30;77.70
6536;DHT22;34330;52.08032700;5.40923460;2023-05-17T06:35:09;14.30;77.70
6536;DHT22;34330;52.08032700;5.40923460;2023-05-17T06:37:37;14.40;77.60
6536;DHT22;34330;52.08032700;5.40923460;2023-05-17T06:40:06;14.50;77.40
6536;DHT22;34330;52.08032700;5.40923460;2023-05-17T06:42:42;14.60;76.70
6536;DHT22;34330;52.08032700;5.40923460;2023-05-17T06:45:12;14.60;76.00
6536;DHT22;34330;52.08032700;5.40923460;2023-05-17T06:47:40;14.70;75.50
6536;DHT22;34330;52.08032700;5.40923460;2023-05-17T06:50:09;14.80;75.30
6536;DHT22;34330;52.08032700;5.40923460;2023-05-17T06:52:37;14.90;75.00
6536;DHT22;34330;52.08032700;5.40923460;2023-05-17T06:55:06;15.00;74.40
6536;DHT22;34330;52.08032700;5.40923460;2023-05-17T06:57:35;15.10;72.20
6536;DHT22;34330;52.08032700;5.40923460;2023-05-17T07:00:04;15.20;71.60
6536;DHT22;34330;52.08032700;5.40923460;2023-05-17T07:02:37;15.30;70.70
6536;DHT22;34330;52.08032700;5.40923460;2023-05-17T07:05:06;15.40;69.60
6536;DHT22;34330;52.08032700;5.40923460;2023-05-17T07:07:34;15.40;69.50
6536;DHT22;34330;52.08032700;5.40923460;2023-05-17T07:10:03;15.40;69.40
6536;DHT22;34330;52.08032700;5.40923460;2023-05-17T07:12:32;15.40;69.10
6536;DHT22;34330;52.08032700;5.40923460;2023-05-17T07:15:00;15.50;69.50
6536;DHT22;34330;52.08032700;5.40923460;2023-05-17T07:17:28;15.40;69.70
6536;DHT22;34330;52.08032700;5.40923460;2023-05-17T07:19:57;15.50;69.90
6536;DHT22;34330;52.08032700;5.40923460;2023-05-17T07:22:25;15.50;68.70
6536;DHT22;34330;52.08032700;5.40923460;2023-05-17T07:24:53;15.50;69.40
6536;DHT22;34330;52.08032700;5.40923460;2023-05-17T07:27:21;15.60;69.10
6536;DHT22;34330;52.08032700;5.40923460;2023-05-17T07:29:49;15.60;68.70
6536;DHT22;34330;52.08032700;5.40923460;2023-05-17T07:32:17;15.70;67.80
6536;DHT22;34330;52.08032700;5.40923460;2023-05-17T07:34:45;15.80;68.00
6536;DHT22;34330;52.08032700;5.40923460;2023-05-17T07:37:14;15.80;67.80
6536;DHT22;34330;52.08032700;5.40923460;2023-05-17T07:39:42;15.90;67.30
6536;DHT22;34330;52.08032700;5.40923460;2023-05-17T07:42:10;16.00;67.60
6536;DHT22;34330;52.08032700;5.40923460;2023-05-17T07:44:38;16.10;66.80
6536;DHT22;34330;52.08032700;5.40923460;2023-05-17T07:47:06;16.20;66.30
6536;DHT22;34330;52.08032700;5.40923460;2023-05-17T07:49:35;16.20;66.40
6536;DHT22;34330;52.08032700;5.40923460;2023-05-17T07:52:04;16.30;66.70
6536;DHT22;34330;52.08032700;5.40923460;2023-05-17T07:54:34;16.40;65.70
6536;DHT22;34330;52.08032700;5.40923460;2023-05-17T07:57:02;16.50;65.00
6536;DHT22;34330;52.08032700;5.40923460;2023-05-17T07:59:30;16.60;64.40
6536;DHT22;34330;52.08032700;5.40923460;2023-05-17T08:01:58;16.70;63.40
6536;DHT22;34330;52.08032700;5.40923460;2023-05-17T08:04:26;16.80;62.20
6536;DHT22;34330;52.08032700;5.40923460;2023-05-17T08:06:54;16.80;62.60
6536;DHT22;34330;52.08032700;5.40923460;2023-05-17T08:09:22;16.80;61.90
6536;DHT22;34330;52.08032700;5.40923460;2023-05-17T08:11:51;16.80;62.20
6536;DHT22;34330;52.08032700;5.40923460;2023-05-17T08:14:22;16.80;61.50
6536;DHT22;34330;52.08032700;5.40923460;2023-05-17T08:16:52;16.80;60.40
6536;DHT22;34330;52.08032700;5.40923460;2023-05-17T08:19:20;16.90;61.00
6536;DHT22;34330;52.08032700;5.40923460;2023-05-17T08:21:49;16.90;61.30
6536;DHT22;34330;52.08032700;5.40923460;2023-05-17T08:24:17;16.90;60.30
6536;DHT22;34330;52.08032700;5.40923460;2023-05-17T08:26:45;17.00;61.30
6536;DHT22;34330;52.08032700;5.40923460;2023-05-17T08:29:14;18.30;61.70
6536;DHT22;34330;52.08032700;5.40923460;2023-05-17T08:31:42;17.10;60.40
6536;DHT22;34330;52.08032700;5.40923460;2023-05-17T08:34:11;17.20;60.20
6536;DHT22;34330;52.08032700;5.40923460;2023-05-17T08:36:39;17.20;59.20
6536;DHT22;34330;52.08032700;5.40923460;2023-05-17T08:39:08;17.20;60.00
6536;DHT22;34330;52.08032700;5.40923460;2023-05-17T08:41:36;17.20;60.40
6536;DHT22;34330;52.08032700;5.40923460;2023-05-17T08:44:04;17.30;59.50
6536;DHT22;34330;52.08032700;5.40923460;2023-05-17T08:46:34;17.30;59.70
6536;DHT22;34330;52.08032700;5.40923460;2023-05-17T08:49:05;17.30;58.90
6536;DHT22;34330;52.08032700;5.40923460;2023-05-17T08:51:35;17.40;59.20
6536;DHT22;34330;52.08032700;5.40923460;2023-05-17T08:54:05;17.50;57.70
6536;DHT22;34330;52.08032700;5.40923460;2023-05-17T08:56:34;17.50;57.10
6536;DHT22;34330;52.08032700;5.40923460;2023-05-17T08:59:07;17.60;56.70
6536;DHT22;34330;52.08032700;5.40923460;2023-05-17T09:01:38;17.60;56.80
6536;DHT22;34330;52.08032700;5.40923460;2023-05-17T09:04:08;17.60;55.20
6536;DHT22;34330;52.08032700;5.40923460;2023-05-17T09:06:36;17.60;55.20
6536;DHT22;34330;52.08032700;5.40923460;2023-05-17T09:09:07;17.70;55.80
6536;DHT22;34330;52.08032700;5.40923460;2023-05-17T09:11:37;17.70;55.50
6536;DHT22;34330;52.08032700;5.40923460;2023-05-17T09:14:06;17.70;55.30
6536;DHT22;34330;52.08032700;5.40923460;2023-05-17T09:16:39;17.80;54.80
6536;DHT22;34330;52.08032700;5.40923460;2023-05-17T09:19:15;17.90;55.50
6536;DHT22;34330;52.08032700;5.40923460;2023-05-17T09:21:46;17.90;54.80
6536;DHT22;34330;52.08032700;5.40923460;2023-05-17T09:24:18;18.00;53.80
6536;DHT22;34330;52.08032700;5.40923460;2023-05-17T09:26:46;18.00;54.40
6536;DHT22;34330;52.08032700;5.40923460;2023-05-17T09:29:15;18.00;54.90
6536;DHT22;34330;52.08032700;5.40923460;2023-05-17T09:31:44;18.00;55.60
6536;DHT22;34330;52.08032700;5.40923460;2023-05-17T09:34:17;18.10;54.90
6536;DHT22;34330;52.08032700;5.40923460;2023-05-17T09:36:45;18.20;54.20
6536;DHT22;34330;52.08032700;5.40923460;2023-05-17T09:39:14;18.20;54.90
6536;DHT22;34330;52.08032700;5.40923460;2023-05-17T09:41:44;18.30;54.80
6536;DHT22;34330;52.08032700;5.40923460;2023-05-17T09:44:14;18.40;54.30
6536;DHT22;34330;52.08032700;5.40923460;2023-05-17T09:46:46;18.40;53.80
6536;DHT22;34330;52.08032700;5.40923460;2023-05-17T09:49:16;18.50;53.40
6536;DHT22;34330;52.08032700;5.40923460;2023-05-17T09:51:46;18.50;53.40
6536;DHT22;34330;52.08032700;5.40923460;2023-05-17T09:54:14;18.60;52.30
6536;DHT22;34330;52.08032700;5.40923460;2023-05-17T09:56:43;18.60;53.00
6536;DHT22;34330;52.08032700;5.40923460;2023-05-17T09:59:13;18.70;51.60
6536;DHT22;34330;52.08032700;5.40923460;2023-05-17T10:01:43;18.70;51.60
6536;DHT22;34330;52.08032700;5.40923460;2023-05-17T10:04:13;18.70;51.20
6536;DHT22;34330;52.08032700;5.40923460;2023-05-17T10:06:46;18.80;52.00
6536;DHT22;34330;52.08032700;5.40923460;2023-05-17T10:09:23;18.80;51.10
6536;DHT22;34330;52.08032700;5.40923460;2023-05-17T10:11:51;20.10;50.90
6536;DHT22;34330;52.08032700;5.40923460;2023-05-17T10:14:25;18.90;51.20
6536;DHT22;34330;52.08032700;5.40923460;2023-05-17T10:16:54;18.90;51.50
6536;DHT22;34330;52.08032700;5.40923460;2023-05-17T10:19:24;19.00;52.10
6536;DHT22;34330;52.08032700;5.40923460;2023-05-17T10:21:52;19.00;50.80
6536;DHT22;34330;52.08032700;5.40923460;2023-05-17T10:24:29;19.00;50.90
6536;DHT22;34330;52.08032700;5.40923460;2023-05-17T10:26:58;19.10;51.10
6536;DHT22;34330;52.08032700;5.40923460;2023-05-17T10:29:27;19.00;50.10
6536;DHT22;34330;52.08032700;5.40923460;2023-05-17T10:31:57;19.10;50.00
6536;DHT22;34330;52.08032700;5.40923460;2023-05-17T10:34:28;19.20;49.20
6536;DHT22;34330;52.08032700;5.40923460;2023-05-17T10:36:57;19.30;48.70
6536;DHT22;34330;52.08032700;5.40923460;2023-05-17T10:39:26;19.30;49.10
6536;DHT22;34330;52.08032700;5.40923460;2023-05-17T10:41:56;19.40;49.60
6536;DHT22;34330;52.08032700;5.40923460;2023-05-17T10:44:40;19.50;49.40
6536;DHT22;34330;52.08032700;5.40923460;2023-05-17T10:47:09;19.50;49.40
6536;DHT22;34330;52.08032700;5.40923460;2023-05-17T10:49:39;19.60;48.70
6536;DHT22;34330;52.08032700;5.40923460;2023-05-17T10:52:16;19.60;48.20
6536;DHT22;34330;52.08032700;5.40923460;2023-05-17T10:54:48;19.70;48.30
6536;DHT22;34330;52.08032700;5.40923460;2023-05-17T10:57:18;19.70;48.10
6536;DHT22;34330;52.08032700;5.40923460;2023-05-17T10:59:57;19.70;48.80
6536;DHT22;34330;52.08032700;5.40923460;2023-05-17T11:02:26;19.80;47.90
6536;DHT22;34330;52.08032700;5.40923460;2023-05-17T11:04:56;19.80;47.90
6536;DHT22;34330;52.08032700;5.40923460;2023-05-17T11:07:27;19.90;46.70
6536;DHT22;34330;52.08032700;5.40923460;2023-05-17T11:10:09;19.90;47.10
6536;DHT22;34330;52.08032700;5.40923460;2023-05-17T11:12:38;19.90;47.00
6536;DHT22;34330;52.08032700;5.40923460;2023-05-17T11:15:09;19.90;45.60
6536;DHT22;34330;52.08032700;5.40923460;2023-05-17T11:17:51;19.90;45.30
6536;DHT22;34330;52.08032700;5.40923460;2023-05-17T11:20:31;19.90;44.70
6536;DHT22;34330;52.08032700;5.40923460;2023-05-17T11:23:03;19.90;46.30
6536;DHT22;34330;52.08032700;5.40923460;2023-05-17T11:25:32;19.90;46.30
6536;DHT22;34330;52.08032700;5.40923460;2023-05-17T11:28:06;19.90;46.80
6536;DHT22;34330;52.08032700;5.40923460;2023-05-17T11:30:40;19.90;46.40
6536;DHT22;34330;52.08032700;5.40923460;2023-05-17T11:33:09;19.90;47.00
6536;DHT22;34330;52.08032700;5.40923460;2023-05-17T11:35:56;20.00;47.40
6536;DHT22;34330;52.08032700;5.40923460;2023-05-17T11:38:30;20.30;47.40
6536;DHT22;34330;52.08032700;5.40923460;2023-05-17T11:41:15;20.20;45.90
6536;DHT22;34330;52.08032700;5.40923460;2023-05-17T11:43:52;20.20;44.90
6536;DHT22;34330;52.08032700;5.40923460;2023-05-17T11:46:22;20.30;46.00
6536;DHT22;34330;52.08032700;5.40923460;2023-05-17T11:48:50;20.30;45.70
6536;DHT22;34330;52.08032700;5.40923460;2023-05-17T11:51:21;20.30;45.90
6536;DHT22;34330;52.08032700;5.40923460;2023-05-17T11:53:53;20.30;46.30
6536;DHT22;34330;52.08032700;5.40923460;2023-05-17T11:56:22;20.40;45.60
6536;DHT22;34330;52.08032700;5.40923460;2023-05-17T11:59:08;20.40;45.30
6536;DHT22;34330;52.08032700;5.40923460;2023-05-17T12:01:43;20.40;44.20
6536;DHT22;34330;52.08032700;5.40923460;2023-05-17T12:04:12;20.40;44.10
6536;DHT22;34330;52.08032700;5.40923460;2023-05-17T12:06:43;20.50;44.80
6536;DHT22;34330;52.08032700;5.40923460;2023-05-17T12:09:14;20.50;44.20
6536;DHT22;34330;52.08032700;5.40923460;2023-05-17T12:11:43;20.50;44.70
6536;DHT22;34330;52.08032700;5.40923460;2023-05-17T12:14:14;20.60;44.30
6536;DHT22;34330;52.08032700;5.40923460;2023-05-17T12:16:43;20.60;44.00
6536;DHT22;34330;52.08032700;5.40923460;2023-05-17T12:19:18;20.60;44.60
6536;DHT22;34330;52.08032700;5.40923460;2023-05-17T12:21:48;20.60;43.90
6536;DHT22;34330;52.08032700;5.40923460;2023-05-17T12:24:17;20.70;44.40
6536;DHT22;34330;52.08032700;5.40923460;2023-05-17T12:26:46;20.70;44.70
6536;DHT22;34330;52.08032700;5.40923460;2023-05-17T12:29:18;20.70;44.40
6536;DHT22;34330;52.08032700;5.40923460;2023-05-17T12:31:49;20.70;42.80
6536;DHT22;34330;52.08032700;5.40923460;2023-05-17T12:34:18;20.80;43.60
6536;DHT22;34330;52.08032700;5.40923460;2023-05-17T12:36:48;20.80;43.60
6536;DHT22;34330;52.08032700;5.40923460;2023-05-17T12:39:18;20.80;43.10
6536;DHT22;34330;52.08032700;5.40923460;2023-05-17T12:41:50;20.80;43.10
6536;DHT22;34330;52.08032700;5.40923460;2023-05-17T12:44:19;20.90;42.90
6536;DHT22;34330;52.08032700;5.40923460;2023-05-17T12:46:47;20.90;42.50
6536;DHT22;34330;52.08032700;5.40923460;2023-05-17T12:49:19;20.90;42.80
6536;DHT22;34330;52.08032700;5.40923460;2023-05-17T12:51:49;20.90;43.10
6536;DHT22;34330;52.08032700;5.40923460;2023-05-17T12:54:27;20.90;41.80
6536;DHT22;34330;52.08032700;5.40923460;2023-05-17T12:56:55;20.90;41.10
6536;DHT22;34330;52.08032700;5.40923460;2023-05-17T12:59:23;20.90;42.80
6536;DHT22;34330;52.08032700;5.40923460;2023-05-17T13:01:54;20.90;42.00
6536;DHT22;34330;52.08032700;5.40923460;2023-05-17T13:04:28;20.90;42.70
6536;DHT22;34330;52.08032700;5.40923460;2023-05-17T13:07:00;20.90;42.00
6536;DHT22;34330;52.08032700;5.40923460;2023-05-17T13:09:29;20.90;42.00
6536;DHT22;34330;52.08032700;5.40923460;2023-05-17T13:11:59;21.00;42.30
6536;DHT22;34330;52.08032700;5.40923460;2023-05-17T13:14:35;21.00;41.90
6536;DHT22;34330;52.08032700;5.40923460;2023-05-17T13:17:04;21.00;41.70
6536;DHT22;34330;52.08032700;5.40923460;2023-05-17T13:19:32;21.00;41.00
6536;DHT22;34330;52.08032700;5.40923460;2023-05-17T13:22:03;21.10;41.30
6536;DHT22;34330;52.08032700;5.40923460;2023-05-17T13:24:33;21.10;41.00
6536;DHT22;34330;52.08032700;5.40923460;2023-05-17T13:27:02;21.20;41.70
6536;DHT22;34330;52.08032700;5.40923460;2023-05-17T13:29:31;21.30;41.30
6536;DHT22;34330;52.08032700;5.40923460;2023-05-17T13:32:06;21.30;41.60
6536;DHT22;34330;52.08032700;5.40923460;2023-05-17T13:34:35;21.30;42.10
6536;DHT22;34330;52.08032700;5.40923460;2023-05-17T13:37:05;21.50;41.70
6536;DHT22;34330;52.08032700;5.40923460;2023-05-17T13:39:38;21.40;41.20
6536;DHT22;34330;52.08032700;5.40923460;2023-05-17T13:42:06;21.50;41.00
6536;DHT22;34330;52.08032700;5.40923460;2023-05-17T13:44:33;21.60;41.00
6536;DHT22;34330;52.08032700;5.40923460;2023-05-17T13:47:01;21.60;41.20
6536;DHT22;34330;52.08032700;5.40923460;2023-05-17T13:49:29;21.70;41.00